This is the latest recevied telemetry packets stored in our database for station/object VE3STP-2. If no packets are shown the sender has not sent any telemetry packets the latest 1 day(s).
Telemetry packets is used to share measurements like repeteater parameters, battery voltage, radiation readings (or any other measurements).
| Time | BATTVOLTAGE* | BATTCURRENT* | BATTPOWER* | GENPWRMN* | CONPWRMN* |
|---|---|---|---|---|---|
| 1836274750 | 12.71 V | -0.58 A | -7.49 W | 4.09 KWH | 3.38 KWH |
| 1778040907 | 12.67 V | -0.36 A | -4.56 W | 0.67 KWH | 0.5 KWH |
| 1778039063 | 12.68 V | -0.36 A | -4.56 W | 0.67 KWH | 0.5 KWH |
| 1778037218 | 12.69 V | -0.37 A | -4.69 W | 0.67 KWH | 0.5 KWH |
| 1778033529 | 12.71 V | -0.38 A | -4.82 W | 0.67 KWH | 0.5 KWH |
| 1778031685 | 12.66 V | -0.58 A | -7.34 W | 0.67 KWH | 0.49 KWH |
| 1778029840 | 12.65 V | -0.6 A | -7.59 W | 0.67 KWH | 0.49 KWH |
| 1778027996 | 12.68 V | -0.58 A | -7.35 W | 0.67 KWH | 0.49 KWH |
| 1778026150 | 12.72 V | -0.52 A | -6.61 W | 0.67 KWH | 0.49 KWH |
| 1778024316 | 12.83 V | -0.48 A | -6.15 W | 0.67 KWH | 0.48 KWH |
| 1778022462 | 13.06 V | -0.34 A | -4.44 W | 0.67 KWH | 0.48 KWH |
| 1778020617 | 13.28 V | -0.16 A | -2.12 W | 0.66 KWH | 0.48 KWH |
| 1778018773 | 13.41 V | -0.07 A | -0.93 W | 0.66 KWH | 0.48 KWH |
| 1778016927 | 13.51 V | -0.35 A | -4.72 W | 0.66 KWH | 0.47 KWH |
| 1778015084 | 13.74 V | 0.38 A | 5.22 W | 0.65 KWH | 0.47 KWH |
| 1778011394 | 13.87 V | 0.56 A | 7.76 W | 0.64 KWH | 0.46 KWH |
| 1778009549 | 13.83 V | 0.51 A | 7.05 W | 0.64 KWH | 0.46 KWH |
| 1778005859 | 13.75 V | 0.14 A | 1.92 W | 0.63 KWH | 0.46 KWH |
| 1778004021 | 13.88 V | 0.5 A | 6.94 W | 0.62 KWH | 0.45 KWH |
| 1778002171 | 13.81 V | 0.54 A | 7.45 W | 0.62 KWH | 0.45 KWH |
| 1778000327 | 13.85 V | 0.56 A | 7.75 W | 0.61 KWH | 0.45 KWH |
| 1777998482 | 13.88 V | 0.45 A | 6.24 W | 0.6 KWH | 0.44 KWH |
| 1777996639 | 13.89 V | 0.54 A | 7.5 W | 0.6 KWH | 0.44 KWH |
| 1777994793 | 13.86 V | 0.67 A | 9.28 W | 0.58 KWH | 0.44 KWH |
| 1777992948 | 13.82 V | 0.63 A | 8.7 W | 0.58 KWH | 0.44 KWH |
*Used Equation Coefficients:
BATTVOLTAGE: 0, 0.01, 0
BATTCURRENT: 0, 0.01, 0
BATTPOWER: 0, 0.01, 0
GENPWRMN: 0, 0.01, 0
CONPWRMN: 0, 0.01, 0
- The parameter names for the analog channels will be Value1, Value2, Value3 (up to Value5) if station has not sent a PARAM-packet that specifies the parameter names for each analog channel.
- Each analog value is a decimal number between 000 and 255 (according to APRS specifications). The receiver use the telemetry equation coefficientsto to restore the original sensor values. If no EQNS-packet with equation coefficients is sent we will show the values as is (this corresponds to the equation coefficients a=0, b=1 and c=0).
The sent equation coefficients is used in the equation: a * value2 + b * value + c. - The units for the analog values will not be shown if station has not sent a UNIT-packet specifying what unit's to use.
- The parameter names for the digital bits will be Bit1, Bit2, Bit3 (up to Bit8) if station has not sent a PARAM-packet that specifies the parameter names for each digital bit.
- All bit labels will be named "On" if station has not sent a UNIT-packet that specifies the label of each bit.
- A bit is considered to be On when the bit is 1 if station has not sent a BITS-packet that specifies another "Bit sense" (a BITS-packet specify the state of the bits that match the BIT labels)